createdAt,value
2019-04-04T00:00:11.083Z,31.23
2019-04-04T00:02:39.163Z,32.70
2019-04-04T00:05:07.570Z,33.28
2019-04-04T00:07:36.277Z,32.23
2019-04-04T00:10:05.046Z,28.07
2019-04-04T00:12:33.157Z,34.60
2019-04-04T00:15:01.537Z,33.58
2019-04-04T00:17:29.889Z,35.10
2019-04-04T00:20:00.612Z,27.80
2019-04-04T00:22:28.027Z,31.30
2019-04-04T00:24:56.292Z,34.90
2019-04-04T00:27:24.291Z,34.00
2019-04-04T00:29:53.596Z,33.08
2019-04-04T00:32:21.888Z,31.30
2019-04-04T00:34:49.930Z,28.95
2019-04-04T00:37:18.226Z,30.92
2019-04-04T00:39:46.289Z,32.07
2019-04-04T00:42:15.016Z,31.55
2019-04-04T00:44:44.325Z,32.85
2019-04-04T00:47:12.375Z,30.00
2019-04-04T00:49:40.672Z,34.45
2019-04-04T00:52:10.402Z,33.00
2019-04-04T00:54:38.941Z,31.68
2019-04-04T00:57:06.982Z,31.02
2019-04-04T00:59:35.121Z,33.10
2019-04-04T01:02:03.198Z,27.93
2019-04-04T01:04:32.073Z,34.83
2019-04-04T01:07:00.116Z,29.52
2019-04-04T01:09:28.907Z,27.98
2019-04-04T01:11:57.194Z,28.32
2019-04-04T01:14:25.300Z,30.97
2019-04-04T01:16:53.268Z,35.33
2019-04-04T01:19:21.823Z,28.12
2019-04-04T01:21:53.057Z,29.77
2019-04-04T01:24:20.120Z,33.65
2019-04-04T01:26:48.099Z,30.12
2019-04-04T01:29:16.141Z,30.55
2019-04-04T01:31:45.882Z,33.25
2019-04-04T01:34:14.154Z,27.33
2019-04-04T01:36:42.497Z,28.02
2019-04-04T01:39:10.635Z,31.75
2019-04-04T01:41:38.582Z,42.80
2019-04-04T01:44:06.547Z,29.92
2019-04-04T01:46:35.011Z,31.52
2019-04-04T01:49:02.986Z,29.05
2019-04-04T01:51:31.366Z,30.92
2019-04-04T01:54:01.012Z,32.38
2019-04-04T01:56:29.533Z,30.40
2019-04-04T01:58:57.834Z,34.60
2019-04-04T02:01:26.116Z,32.07
2019-04-04T02:03:54.694Z,29.55
2019-04-04T02:06:22.708Z,29.23
2019-04-04T02:08:51.304Z,27.50
2019-04-04T02:11:19.620Z,28.42
2019-04-04T02:13:47.585Z,32.60
2019-04-04T02:16:17.081Z,34.03
2019-04-04T02:18:45.803Z,30.20
2019-04-04T02:21:14.017Z,30.05
2019-04-04T02:23:41.953Z,28.83
2019-04-04T02:26:10.218Z,28.75
2019-04-04T02:28:39.995Z,30.35
2019-04-04T02:31:08.390Z,32.75
2019-04-04T02:33:36.649Z,30.65
2019-04-04T02:36:04.700Z,29.07
2019-04-04T02:38:32.662Z,30.75
2019-04-04T02:41:01.065Z,31.80
2019-04-04T02:43:29.342Z,31.77
2019-04-04T02:45:57.312Z,31.75
2019-04-04T02:48:25.526Z,30.88
2019-04-04T02:50:54.207Z,34.08
2019-04-04T02:53:22.512Z,29.35
2019-04-04T02:55:50.479Z,33.60
2019-04-04T02:58:19.028Z,30.97
2019-04-04T03:00:47.228Z,32.60
2019-04-04T03:03:15.150Z,29.05
2019-04-04T03:05:43.105Z,29.83
2019-04-04T03:08:11.098Z,30.80
2019-04-04T03:10:39.414Z,30.32
2019-04-04T03:13:07.347Z,30.27
2019-04-04T03:15:36.132Z,31.33
2019-04-04T03:18:05.395Z,30.75
2019-04-04T03:20:33.915Z,34.07
2019-04-04T03:23:02.290Z,30.75
2019-04-04T03:25:30.270Z,34.40
2019-04-04T03:27:59.280Z,31.15
2019-04-04T03:30:27.419Z,30.97
2019-04-04T03:32:55.705Z,31.80
2019-04-04T03:35:28.280Z,34.80
2019-04-04T03:37:54.029Z,31.05
2019-04-04T03:40:24.667Z,32.20
2019-04-04T03:42:52.070Z,32.20
2019-04-04T03:45:20.096Z,32.42
2019-04-04T03:47:48.669Z,32.80
2019-04-04T03:50:17.021Z,34.48
2019-04-04T03:52:44.971Z,34.80
2019-04-04T03:55:12.931Z,29.90
2019-04-04T03:57:40.957Z,33.02
2019-04-04T04:00:09.559Z,30.55
2019-04-04T04:02:37.569Z,32.63
2019-04-04T04:05:14.640Z,39.20
2019-04-04T04:07:41.219Z,33.02
2019-04-04T04:10:09.196Z,36.05
2019-04-04T04:12:37.457Z,32.98
2019-04-04T04:15:05.440Z,36.73
2019-04-04T04:17:36.303Z,33.50
2019-04-04T04:20:04.689Z,32.35
2019-04-04T04:22:32.969Z,35.78
2019-04-04T04:25:03.253Z,31.62
2019-04-04T04:27:30.838Z,34.45
2019-04-04T04:29:59.769Z,34.38
2019-04-04T04:32:28.759Z,35.35
2019-04-04T04:34:56.922Z,30.92
2019-04-04T04:37:25.175Z,36.83
2019-04-04T04:39:53.130Z,32.67
2019-04-04T04:42:21.460Z,30.55
2019-04-04T04:44:49.560Z,33.13
2019-04-04T04:47:17.587Z,33.85
2019-04-04T04:49:46.144Z,34.70
2019-04-04T04:52:15.162Z,31.80
2019-04-04T04:54:43.589Z,34.08
2019-04-04T04:57:17.775Z,34.05
2019-04-04T04:59:41.108Z,33.00
2019-04-04T05:02:09.081Z,30.53
2019-04-04T05:04:37.343Z,27.30
2019-04-04T05:07:07.368Z,33.80
2019-04-04T05:09:34.978Z,29.07
2019-04-04T05:12:03.599Z,32.38
2019-04-04T05:14:32.081Z,30.20
2019-04-04T05:17:00.029Z,29.15
2019-04-04T05:19:28.041Z,29.35
2019-04-04T05:21:56.067Z,30.62
2019-04-04T05:24:23.993Z,31.05
2019-04-04T05:26:52.260Z,31.65
2019-04-04T05:29:20.525Z,29.12
2019-04-04T05:31:50.043Z,27.87
2019-04-04T05:34:18.917Z,36.85
2019-04-04T05:36:47.273Z,27.10
2019-04-04T05:39:17.706Z,29.52
2019-04-04T05:41:45.483Z,33.20
2019-04-04T05:44:13.447Z,35.23
2019-04-04T05:46:41.415Z,33.92
2019-04-04T05:49:09.438Z,29.48
2019-04-04T05:51:37.701Z,48.00
2019-04-04T05:54:07.656Z,52.05
2019-04-04T05:56:35.851Z,29.87
2019-04-04T05:59:04.246Z,25.52
2019-04-04T06:01:34.992Z,26.80
2019-04-04T06:04:03.910Z,34.25
2019-04-04T06:06:33.457Z,32.95
2019-04-04T06:09:02.153Z,30.88
2019-04-04T06:11:30.209Z,32.03
2019-04-04T06:13:59.116Z,34.10
2019-04-04T06:16:27.916Z,33.45
2019-04-04T06:18:56.608Z,32.13
2019-04-04T06:21:24.528Z,30.97
2019-04-04T06:23:53.925Z,32.67
2019-04-04T06:26:22.364Z,32.70
2019-04-04T06:28:50.321Z,34.75
2019-04-04T06:31:18.613Z,36.63
2019-04-04T06:33:46.607Z,37.38
2019-04-04T06:36:17.567Z,32.93
2019-04-04T06:38:44.551Z,36.50
2019-04-04T06:41:12.508Z,36.60
2019-04-04T06:43:41.687Z,38.23
2019-04-04T06:46:10.041Z,37.33
2019-04-04T06:48:38.252Z,32.03
2019-04-04T06:51:06.256Z,33.10
2019-04-04T06:53:34.531Z,32.08
2019-04-04T06:56:02.526Z,39.77
2019-04-04T06:58:30.515Z,36.83
2019-04-04T07:00:59.318Z,29.07
2019-04-04T07:03:28.165Z,27.80
2019-04-04T07:05:56.345Z,32.83
2019-04-04T07:08:24.512Z,30.35
2019-04-04T07:10:57.817Z,26.23
2019-04-04T07:13:27.341Z,31.40
2019-04-04T07:16:06.231Z,25.72
2019-04-04T07:18:22.464Z,32.00
2019-04-04T07:20:50.475Z,28.62
2019-04-04T07:23:18.498Z,29.25
2019-04-04T07:25:46.464Z,28.80
2019-04-04T07:28:14.798Z,30.20
2019-04-04T07:30:42.744Z,29.30
2019-04-04T07:33:12.628Z,28.17
2019-04-04T07:35:40.574Z,32.83
2019-04-04T07:38:08.555Z,29.10
2019-04-04T07:40:37.380Z,30.37
2019-04-04T07:43:08.402Z,33.95
2019-04-04T07:45:35.409Z,32.17
2019-04-04T07:48:03.588Z,31.87
2019-04-04T07:50:32.011Z,30.00
2019-04-04T07:53:03.890Z,28.25
2019-04-04T07:55:30.509Z,35.40
2019-04-04T07:57:59.143Z,27.80
2019-04-04T08:00:27.217Z,30.90
2019-04-04T08:02:55.536Z,34.70
2019-04-04T08:05:25.289Z,28.70
2019-04-04T08:07:53.925Z,38.30
2019-04-04T08:10:23.080Z,35.88
2019-04-04T08:12:52.792Z,33.35
2019-04-04T08:15:22.160Z,30.08
2019-04-04T08:17:52.197Z,31.73
2019-04-04T08:20:20.521Z,28.05
2019-04-04T08:22:48.847Z,34.30
2019-04-04T08:25:16.915Z,30.10
2019-04-04T08:27:46.073Z,30.55
2019-04-04T08:30:14.996Z,26.02
2019-04-04T08:32:44.633Z,29.07
2019-04-04T08:35:12.914Z,29.60
2019-04-04T08:37:41.011Z,29.82
2019-04-04T08:40:09.121Z,27.45
2019-04-04T08:42:37.244Z,27.98
2019-04-04T08:45:05.885Z,26.70
2019-04-04T08:47:34.629Z,31.10
2019-04-04T08:50:02.706Z,33.65
2019-04-04T08:52:31.012Z,31.27
2019-04-04T08:54:59.666Z,28.12
2019-04-04T08:57:27.790Z,30.90
2019-04-04T08:59:56.261Z,29.30
2019-04-04T09:02:24.474Z,31.87
2019-04-04T09:04:52.559Z,33.10
2019-04-04T09:07:20.945Z,29.90
2019-04-04T09:09:49.108Z,31.87
2019-04-04T09:12:17.604Z,33.33
2019-04-04T09:14:45.858Z,32.98
2019-04-04T09:17:14.027Z,33.55
2019-04-04T09:19:42.217Z,32.70
2019-04-04T09:22:10.979Z,26.68
2019-04-04T09:24:40.821Z,29.45
2019-04-04T09:27:08.906Z,26.80
2019-04-04T09:29:37.049Z,30.10
2019-04-04T09:32:07.259Z,28.67
2019-04-04T09:34:35.777Z,26.55
2019-04-04T09:37:04.326Z,30.10
2019-04-04T09:39:34.344Z,31.17
2019-04-04T09:42:03.029Z,32.93
2019-04-04T09:44:31.413Z,30.37
2019-04-04T09:47:05.590Z,29.80
2019-04-04T09:49:29.862Z,29.57
2019-04-04T09:51:57.901Z,29.98
2019-04-04T09:54:26.024Z,33.28
2019-04-04T09:56:54.533Z,30.32
2019-04-04T09:59:23.249Z,30.50
2019-04-04T10:01:51.666Z,33.30
2019-04-04T10:04:19.853Z,28.50
2019-04-04T10:06:48.032Z,28.67
2019-04-04T10:09:17.989Z,31.20
2019-04-04T10:11:46.491Z,26.07
2019-04-04T10:14:14.907Z,28.65
2019-04-04T10:16:44.138Z,26.97
2019-04-04T10:19:14.329Z,34.30
2019-04-04T10:21:42.913Z,27.70
2019-04-04T10:24:11.368Z,29.52
2019-04-04T10:26:39.968Z,29.23
2019-04-04T10:29:08.424Z,33.90
2019-04-04T10:31:36.926Z,29.20
2019-04-04T10:34:06.054Z,30.80
2019-04-04T10:36:35.709Z,29.37
2019-04-04T10:39:06.242Z,31.95
2019-04-04T10:41:34.485Z,29.32
2019-04-04T10:44:04.621Z,29.98
2019-04-04T10:46:33.262Z,34.67
2019-04-04T10:49:02.219Z,32.73
2019-04-04T10:51:30.320Z,27.25
2019-04-04T10:53:59.010Z,33.65
2019-04-04T10:56:27.140Z,36.60
2019-04-04T10:58:55.870Z,32.98
2019-04-04T11:01:24.317Z,33.67
2019-04-04T11:03:52.733Z,35.98
2019-04-04T11:06:20.837Z,33.58
2019-04-04T11:08:49.390Z,28.10
2019-04-04T11:11:19.405Z,33.10
2019-04-04T11:13:47.484Z,27.16
2019-04-04T11:16:16.025Z,31.60
2019-04-04T11:18:46.002Z,32.63
2019-04-04T11:21:17.084Z,34.15
2019-04-04T11:23:45.206Z,34.98
2019-04-04T11:26:13.803Z,30.43
2019-04-04T11:28:42.697Z,33.48
2019-04-04T11:31:10.937Z,29.90
2019-04-04T11:33:39.391Z,30.47
2019-04-04T11:36:07.531Z,26.20
2019-04-04T11:38:35.683Z,29.75
2019-04-04T11:41:04.093Z,33.25
2019-04-04T11:43:32.080Z,29.07
2019-04-04T11:46:00.129Z,36.08
2019-04-04T11:48:28.198Z,32.63
2019-04-04T11:50:56.266Z,30.27
2019-04-04T11:53:25.381Z,29.57
2019-04-04T11:55:53.460Z,28.25
2019-04-04T11:58:21.854Z,29.73
2019-04-04T12:00:51.277Z,29.32
2019-04-04T12:03:19.654Z,28.57
2019-04-04T12:05:47.721Z,25.57
2019-04-04T12:08:16.101Z,31.65
2019-04-04T12:10:44.191Z,32.10
2019-04-04T12:13:12.669Z,32.58
2019-04-04T12:15:41.027Z,34.05
2019-04-04T12:18:09.330Z,28.55
2019-04-04T12:20:37.369Z,35.08
2019-04-04T12:23:05.752Z,23.32
2019-04-04T12:25:33.893Z,24.27
2019-04-04T12:28:02.209Z,29.00
2019-04-04T12:30:30.586Z,26.23
2019-04-04T12:32:58.901Z,28.30
2019-04-04T12:35:27.015Z,28.12
2019-04-04T12:37:55.414Z,27.40
2019-04-04T12:40:23.798Z,24.50
2019-04-04T12:42:52.141Z,26.00
2019-04-04T12:45:20.514Z,24.87
2019-04-04T12:47:48.555Z,26.48
2019-04-04T12:50:16.897Z,24.18
2019-04-04T12:52:45.277Z,22.50
2019-04-04T12:55:13.661Z,23.57
2019-04-04T12:57:42.057Z,27.60
2019-04-04T13:00:10.558Z,23.33
2019-04-04T13:02:38.633Z,24.03
2019-04-04T13:05:07.249Z,25.88
2019-04-04T13:07:35.313Z,22.90
2019-04-04T13:10:11.408Z,22.45
2019-04-04T13:12:33.920Z,19.25
2019-04-04T13:15:02.032Z,25.00
2019-04-04T13:17:30.114Z,24.43
2019-04-04T13:19:58.246Z,24.00
2019-04-04T13:22:26.962Z,24.75
2019-04-04T13:24:56.354Z,24.63
2019-04-04T13:27:24.736Z,26.93
2019-04-04T13:29:52.809Z,24.10
2019-04-04T13:32:21.305Z,20.20
2019-04-04T13:34:59.043Z,23.62
2019-04-04T13:37:21.232Z,22.67
2019-04-04T13:39:49.607Z,22.05
2019-04-04T13:42:17.825Z,23.45
2019-04-04T13:44:45.949Z,24.15
2019-04-04T13:47:14.193Z,24.13
2019-04-04T13:49:44.504Z,24.65
2019-04-04T13:52:12.886Z,22.95
2019-04-04T13:54:41.048Z,24.67
2019-04-04T13:57:09.764Z,22.77
2019-04-04T13:59:37.909Z,21.55
2019-04-04T14:02:08.001Z,24.55
2019-04-04T14:04:37.089Z,22.30
2019-04-04T14:07:07.173Z,23.10
2019-04-04T14:09:35.899Z,23.52
2019-04-04T14:12:04.414Z,20.82
2019-04-04T14:14:33.269Z,19.80
2019-04-04T14:17:07.129Z,22.73
2019-04-04T14:19:43.499Z,21.55
2019-04-04T14:22:12.993Z,21.95
2019-04-04T14:24:41.920Z,28.73
2019-04-04T14:27:10.054Z,22.60
2019-04-04T14:29:38.226Z,31.93
2019-04-04T14:32:06.357Z,31.77
2019-04-04T14:34:36.465Z,30.43
2019-04-04T14:37:04.952Z,41.45
2019-04-04T14:39:33.545Z,26.10
2019-04-04T14:42:01.668Z,31.70
2019-04-04T14:44:30.701Z,33.55
2019-04-04T14:46:59.818Z,33.73
2019-04-04T14:49:28.133Z,32.20
2019-04-04T14:51:56.631Z,31.30
2019-04-04T14:54:24.778Z,35.45
2019-04-04T14:56:52.978Z,35.45
2019-04-04T14:59:21.134Z,33.18
2019-04-04T15:01:49.826Z,30.10
2019-04-04T15:04:19.106Z,30.37
2019-04-04T15:06:47.165Z,32.67
2019-04-04T15:09:15.739Z,30.15
2019-04-04T15:11:44.471Z,34.88
2019-04-04T15:14:12.749Z,34.35
2019-04-04T15:16:41.284Z,29.37
2019-04-04T15:19:09.426Z,29.25
2019-04-04T15:21:37.568Z,32.20
2019-04-04T15:24:05.716Z,33.95
2019-04-04T15:26:33.945Z,30.62
2019-04-04T15:29:01.961Z,33.42
2019-04-04T15:31:30.021Z,32.60
2019-04-04T15:33:58.405Z,33.05
2019-04-04T15:36:26.516Z,36.75
2019-04-04T15:38:54.854Z,32.93
2019-04-04T15:41:35.909Z,35.60
2019-04-04T15:43:52.982Z,37.13
2019-04-04T15:46:21.326Z,37.95
2019-04-04T15:48:49.381Z,33.70
2019-04-04T15:51:17.609Z,41.35
2019-04-04T15:53:46.057Z,33.43
2019-04-04T15:56:14.000Z,31.47
2019-04-04T15:58:42.295Z,34.75
2019-04-04T16:01:10.270Z,44.42
2019-04-04T16:03:38.849Z,40.00
2019-04-04T16:06:06.816Z,37.10
2019-04-04T16:08:34.805Z,38.02
2019-04-04T16:11:02.788Z,34.23
2019-04-04T16:13:31.047Z,37.33
2019-04-04T16:15:59.302Z,41.63
2019-04-04T16:18:27.306Z,33.48
2019-04-04T16:20:55.321Z,38.25
2019-04-04T16:23:24.036Z,37.23
2019-04-04T16:25:51.997Z,46.05
2019-04-04T16:28:20.238Z,51.98
2019-04-04T16:30:48.873Z,48.27
2019-04-04T16:33:26.691Z,48.20
2019-04-04T16:35:54.364Z,43.58
2019-04-04T16:38:23.048Z,46.73
2019-04-04T16:40:52.603Z,45.33
2019-04-04T16:43:27.673Z,42.93
2019-04-04T16:46:00.832Z,39.00
2019-04-04T16:48:30.954Z,41.37
2019-04-04T16:50:59.025Z,45.20
2019-04-04T16:53:29.869Z,53.15
2019-04-04T16:56:04.152Z,40.38
2019-04-04T16:58:41.878Z,46.65
2019-04-04T17:01:20.457Z,54.67
2019-04-04T17:04:01.069Z,57.98
2019-04-04T17:06:24.825Z,40.92
2019-04-04T17:08:53.224Z,39.88
2019-04-04T17:11:21.186Z,41.33
2019-04-04T17:13:49.784Z,42.08
2019-04-04T17:16:18.071Z,42.98
2019-04-04T17:18:48.591Z,39.78
2019-04-04T17:21:16.896Z,46.65
2019-04-04T17:23:45.149Z,39.83
2019-04-04T17:26:13.723Z,41.67
2019-04-04T17:28:42.435Z,40.20
2019-04-04T17:31:11.218Z,37.48
2019-04-04T17:33:39.260Z,41.70
2019-04-04T17:36:07.325Z,43.68
2019-04-04T17:38:35.821Z,44.05
2019-04-04T17:41:04.230Z,41.00
2019-04-04T17:43:32.430Z,38.05
2019-04-04T17:46:00.944Z,39.58
2019-04-04T17:48:31.526Z,48.80
2019-04-04T17:50:58.708Z,43.75
2019-04-04T17:53:26.976Z,41.40
2019-04-04T17:55:56.100Z,41.33
2019-04-04T17:58:24.228Z,42.20
2019-04-04T18:00:52.473Z,44.73
2019-04-04T18:03:21.163Z,41.45
2019-04-04T18:05:49.149Z,43.92
2019-04-04T18:08:17.193Z,42.03
2019-04-04T18:10:45.177Z,43.35
2019-04-04T18:13:13.142Z,43.23
2019-04-04T18:15:41.422Z,40.33
2019-04-04T18:18:09.417Z,37.60
2019-04-04T18:20:37.775Z,40.47
2019-04-04T18:23:05.720Z,42.25
2019-04-04T18:25:33.973Z,42.90
2019-04-04T18:28:02.400Z,48.00
2019-04-04T18:30:30.366Z,45.90
2019-04-04T18:32:59.058Z,42.10
2019-04-04T18:35:27.740Z,41.88
2019-04-04T18:37:56.377Z,41.90
2019-04-04T18:40:24.295Z,40.35
2019-04-04T18:42:53.825Z,46.48
2019-04-04T18:45:22.019Z,43.17
2019-04-04T18:47:50.171Z,50.90
2019-04-04T18:50:18.484Z,41.70
2019-04-04T18:52:46.873Z,44.05
2019-04-04T18:55:19.941Z,42.98
2019-04-04T18:57:45.102Z,45.67
2019-04-04T19:00:13.908Z,46.83
2019-04-04T19:02:42.228Z,42.50
2019-04-04T19:05:11.554Z,38.98
2019-04-04T19:07:42.769Z,76.90
2019-04-04T19:10:10.906Z,70.77
2019-04-04T19:12:38.896Z,90.03
2019-04-04T19:15:07.828Z,60.27
2019-04-04T19:17:36.040Z,43.47
2019-04-04T19:20:04.817Z,39.67
2019-04-04T19:22:33.189Z,44.77
2019-04-04T19:25:01.468Z,47.20
2019-04-04T19:27:29.705Z,44.25
2019-04-04T19:29:57.707Z,41.00
2019-04-04T19:32:25.989Z,45.10
2019-04-04T19:34:54.573Z,46.47
2019-04-04T19:37:22.849Z,48.33
2019-04-04T19:39:51.080Z,49.73
2019-04-04T19:42:19.370Z,52.98
2019-04-04T19:44:53.052Z,49.83
2019-04-04T19:47:17.677Z,56.55
2019-04-04T19:49:45.814Z,67.95
2019-04-04T19:52:14.418Z,69.50
2019-04-04T19:54:42.422Z,72.20
2019-04-04T19:57:10.340Z,52.10
2019-04-04T19:59:38.675Z,50.20
2019-04-04T20:02:07.194Z,46.73
2019-04-04T20:04:35.728Z,49.30
2019-04-04T20:07:03.877Z,54.77
2019-04-04T20:09:32.195Z,50.50
2019-04-04T20:12:00.270Z,49.00
2019-04-04T20:14:29.116Z,49.20
2019-04-04T20:16:57.160Z,52.13
2019-04-04T20:19:25.104Z,46.63
2019-04-04T20:21:53.076Z,48.13
2019-04-04T20:24:21.652Z,50.60
2019-04-04T20:26:49.642Z,52.73
2019-04-04T20:29:18.166Z,52.20
2019-04-04T20:31:46.150Z,53.05
2019-04-04T20:34:14.123Z,50.78
2019-04-04T20:36:42.328Z,47.90
2019-04-04T20:39:10.905Z,56.83
2019-04-04T20:41:38.842Z,63.40
2019-04-04T20:44:07.136Z,107.27
2019-04-04T20:46:35.368Z,93.45
2019-04-04T20:49:03.823Z,77.25
2019-04-04T20:51:31.798Z,65.10
2019-04-04T20:53:59.781Z,70.40
2019-04-04T20:56:28.647Z,60.58
2019-04-04T20:58:56.734Z,58.87
2019-04-04T21:01:25.052Z,54.93
2019-04-04T21:03:53.260Z,53.73
2019-04-04T21:06:21.537Z,50.98
2019-04-04T21:08:49.482Z,53.40
2019-04-04T21:11:17.791Z,55.85
2019-04-04T21:13:55.644Z,53.67
2019-04-04T21:16:15.683Z,53.42
2019-04-04T21:18:44.056Z,54.30
2019-04-04T21:21:12.636Z,47.60
2019-04-04T21:23:40.606Z,51.40
2019-04-04T21:26:08.884Z,51.95
2019-04-04T21:28:37.117Z,51.23
2019-04-04T21:31:05.082Z,53.90
2019-04-04T21:33:33.065Z,53.30
2019-04-04T21:36:01.272Z,49.30
2019-04-04T21:38:29.253Z,53.05
2019-04-04T21:40:57.444Z,52.90
2019-04-04T21:43:25.797Z,55.40
2019-04-04T21:45:54.033Z,54.27
2019-04-04T21:48:22.354Z,51.23
2019-04-04T21:50:50.323Z,53.73
2019-04-04T21:53:18.681Z,53.63
2019-04-04T21:56:01.303Z,56.40
2019-04-04T21:58:29.882Z,53.90
2019-04-04T22:00:57.940Z,54.45
2019-04-04T22:03:26.396Z,58.17
2019-04-04T22:05:54.733Z,56.20
2019-04-04T22:08:23.161Z,60.10
2019-04-04T22:10:52.617Z,67.07
2019-04-04T22:13:21.010Z,60.63
2019-04-04T22:15:49.890Z,63.08
2019-04-04T22:18:17.867Z,62.20
2019-04-04T22:20:46.244Z,59.48
2019-04-04T22:23:14.428Z,55.48
2019-04-04T22:25:42.873Z,62.95
2019-04-04T22:28:12.302Z,64.93
2019-04-04T22:30:40.936Z,60.03
2019-04-04T22:33:08.909Z,60.17
2019-04-04T22:35:37.229Z,59.90
2019-04-04T22:38:05.509Z,62.40
2019-04-04T22:40:33.758Z,56.65
2019-04-04T22:43:02.242Z,60.17
2019-04-04T22:45:30.714Z,63.83
2019-04-04T22:48:00.861Z,60.80
2019-04-04T22:50:31.240Z,62.80
2019-04-04T22:53:01.044Z,58.58
2019-04-04T22:55:31.292Z,60.00
2019-04-04T22:58:01.808Z,59.80
2019-04-04T23:00:33.094Z,60.88
2019-04-04T23:03:05.499Z,62.53
2019-04-04T23:05:38.031Z,65.35
2019-04-04T23:08:16.437Z,66.30
2019-04-04T23:10:47.016Z,65.20
2019-04-04T23:13:19.464Z,66.75
2019-04-04T23:15:50.459Z,63.60
2019-04-04T23:18:23.711Z,60.90
2019-04-04T23:20:56.926Z,60.52
2019-04-04T23:23:28.107Z,62.45
2019-04-04T23:25:58.418Z,66.30
2019-04-04T23:28:29.605Z,58.78
2019-04-04T23:30:59.532Z,62.43
2019-04-04T23:33:28.558Z,64.10
2019-04-04T23:35:57.430Z,63.23
2019-04-04T23:38:26.538Z,60.52
2019-04-04T23:40:54.610Z,64.65
2019-04-04T23:43:22.610Z,66.40
2019-04-04T23:45:50.969Z,63.13
2019-04-04T23:48:19.021Z,61.23
2019-04-04T23:50:47.011Z,61.58
2019-04-04T23:53:15.260Z,64.37
2019-04-04T23:55:43.260Z,67.77
2019-04-04T23:58:11.961Z,65.75
